sensor_id;sensor_type;location;lat;lon;timestamp;temperature;humidity
28520;DHT22;15732;48.534;20.382;2023-06-22T00:00:23;21.60;99.90
28520;DHT22;15732;48.534;20.382;2023-06-22T00:02:49;21.60;99.90
28520;DHT22;15732;48.534;20.382;2023-06-22T00:05:17;21.60;99.90
28520;DHT22;15732;48.534;20.382;2023-06-22T00:07:43;21.60;99.90
28520;DHT22;15732;48.534;20.382;2023-06-22T00:10:11;21.60;99.90
28520;DHT22;15732;48.534;20.382;2023-06-22T00:12:38;21.60;99.90
28520;DHT22;15732;48.534;20.382;2023-06-22T00:15:06;21.60;99.90
28520;DHT22;15732;48.534;20.382;2023-06-22T00:17:34;21.60;99.90
28520;DHT22;15732;48.534;20.382;2023-06-22T00:20:01;21.60;99.90
28520;DHT22;15732;48.534;20.382;2023-06-22T00:22:31;21.60;99.90
28520;DHT22;15732;48.534;20.382;2023-06-22T00:25:08;21.60;99.90
28520;DHT22;15732;48.534;20.382;2023-06-22T00:27:35;21.60;99.90
28520;DHT22;15732;48.534;20.382;2023-06-22T00:30:03;21.60;99.90
28520;DHT22;15732;48.534;20.382;2023-06-22T00:32:32;21.70;99.90
28520;DHT22;15732;48.534;20.382;2023-06-22T00:35:03;21.60;99.90
28520;DHT22;15732;48.534;20.382;2023-06-22T00:37:29;21.70;99.90
28520;DHT22;15732;48.534;20.382;2023-06-22T00:39:56;21.70;99.90
28520;DHT22;15732;48.534;20.382;2023-06-22T00:42:24;21.70;99.90
28520;DHT22;15732;48.534;20.382;2023-06-22T00:44:55;21.60;99.90
28520;DHT22;15732;48.534;20.382;2023-06-22T00:47:22;21.60;99.90
28520;DHT22;15732;48.534;20.382;2023-06-22T00:49:50;21.60;99.90
28520;DHT22;15732;48.534;20.382;2023-06-22T00:52:19;21.60;99.90
28520;DHT22;15732;48.534;20.382;2023-06-22T00:54:51;21.50;99.90
28520;DHT22;15732;48.534;20.382;2023-06-22T00:57:19;21.50;99.90
28520;DHT22;15732;48.534;20.382;2023-06-22T00:59:48;21.50;99.90
28520;DHT22;15732;48.534;20.382;2023-06-22T01:02:15;21.50;99.90
28520;DHT22;15732;48.534;20.382;2023-06-22T01:04:42;21.50;99.90
28520;DHT22;15732;48.534;20.382;2023-06-22T01:12:38;21.30;99.90
28520;DHT22;15732;48.534;20.382;2023-06-22T01:15:23;21.30;99.90
28520;DHT22;15732;48.534;20.382;2023-06-22T01:18:06;21.30;99.90
28520;DHT22;15732;48.534;20.382;2023-06-22T01:20:35;21.30;99.90
28520;DHT22;15732;48.534;20.382;2023-06-22T01:23:33;21.30;99.90
28520;DHT22;15732;48.534;20.382;2023-06-22T01:28:53;21.30;99.90
28520;DHT22;15732;48.534;20.382;2023-06-22T01:31:23;21.40;99.90
28520;DHT22;15732;48.534;20.382;2023-06-22T01:33:54;21.40;99.90
28520;DHT22;15732;48.534;20.382;2023-06-22T01:36:26;21.40;99.90
28520;DHT22;15732;48.534;20.382;2023-06-22T01:38:57;21.40;99.90
28520;DHT22;15732;48.534;20.382;2023-06-22T01:41:29;21.40;99.90
28520;DHT22;15732;48.534;20.382;2023-06-22T01:43:57;21.40;99.90
28520;DHT22;15732;48.534;20.382;2023-06-22T01:46:29;21.40;99.90
28520;DHT22;15732;48.534;20.382;2023-06-22T01:48:57;21.30;99.90
28520;DHT22;15732;48.534;20.382;2023-06-22T01:51:24;21.30;99.90
28520;DHT22;15732;48.534;20.382;2023-06-22T01:53:52;21.30;99.90
28520;DHT22;15732;48.534;20.382;2023-06-22T01:56:19;21.30;99.90
28520;DHT22;15732;48.534;20.382;2023-06-22T01:59:08;21.30;99.90
28520;DHT22;15732;48.534;20.382;2023-06-22T02:01:43;21.30;99.90
28520;DHT22;15732;48.534;20.382;2023-06-22T02:04:21;21.20;99.90
28520;DHT22;15732;48.534;20.382;2023-06-22T02:06:57;21.20;99.90
28520;DHT22;15732;48.534;20.382;2023-06-22T02:09:31;21.20;99.90
28520;DHT22;15732;48.534;20.382;2023-06-22T02:12:00;21.20;99.90
28520;DHT22;15732;48.534;20.382;2023-06-22T02:14:29;21.20;99.90
28520;DHT22;15732;48.534;20.382;2023-06-22T02:16:57;21.20;99.90
28520;DHT22;15732;48.534;20.382;2023-06-22T02:19:27;21.20;99.90
28520;DHT22;15732;48.534;20.382;2023-06-22T02:22:02;21.20;99.90
28520;DHT22;15732;48.534;20.382;2023-06-22T02:24:29;21.20;99.90
28520;DHT22;15732;48.534;20.382;2023-06-22T02:27:01;21.20;99.90
28520;DHT22;15732;48.534;20.382;2023-06-22T02:29:29;21.10;99.90
28520;DHT22;15732;48.534;20.382;2023-06-22T02:31:56;21.10;99.90
28520;DHT22;15732;48.534;20.382;2023-06-22T02:34:24;21.10;99.90
28520;DHT22;15732;48.534;20.382;2023-06-22T02:36:52;21.10;99.90
28520;DHT22;15732;48.534;20.382;2023-06-22T02:39:24;21.10;99.90
28520;DHT22;15732;48.534;20.382;2023-06-22T02:41:54;20.90;99.90
28520;DHT22;15732;48.534;20.382;2023-06-22T02:44:21;20.90;99.90
28520;DHT22;15732;48.534;20.382;2023-06-22T02:46:49;20.90;99.90
28520;DHT22;15732;48.534;20.382;2023-06-22T02:49:16;20.90;99.90
28520;DHT22;15732;48.534;20.382;2023-06-22T02:51:46;20.80;99.90
28520;DHT22;15732;48.534;20.382;2023-06-22T02:54:17;20.90;99.90
28520;DHT22;15732;48.534;20.382;2023-06-22T02:56:45;20.90;99.90
28520;DHT22;15732;48.534;20.382;2023-06-22T02:59:16;20.90;99.90
28520;DHT22;15732;48.534;20.382;2023-06-22T03:01:52;20.90;99.90
28520;DHT22;15732;48.534;20.382;2023-06-22T03:04:20;20.80;99.90
28520;DHT22;15732;48.534;20.382;2023-06-22T03:06:47;20.70;99.90
28520;DHT22;15732;48.534;20.382;2023-06-22T03:09:18;20.70;99.90
28520;DHT22;15732;48.534;20.382;2023-06-22T03:11:45;20.60;99.90
28520;DHT22;15732;48.534;20.382;2023-06-22T03:14:16;20.50;99.90
28520;DHT22;15732;48.534;20.382;2023-06-22T03:16:47;20.50;99.90
28520;DHT22;15732;48.534;20.382;2023-06-22T03:19:15;20.60;99.90
28520;DHT22;15732;48.534;20.382;2023-06-22T03:21:43;20.70;99.90
28520;DHT22;15732;48.534;20.382;2023-06-22T03:24:10;20.60;99.90
28520;DHT22;15732;48.534;20.382;2023-06-22T03:26:38;20.70;99.90
28520;DHT22;15732;48.534;20.382;2023-06-22T03:29:09;20.70;99.90
28520;DHT22;15732;48.534;20.382;2023-06-22T03:31:36;20.70;99.90
28520;DHT22;15732;48.534;20.382;2023-06-22T03:34:07;20.60;99.90
28520;DHT22;15732;48.534;20.382;2023-06-22T03:36:35;20.60;99.90
28520;DHT22;15732;48.534;20.382;2023-06-22T03:39:02;20.60;99.90
28520;DHT22;15732;48.534;20.382;2023-06-22T03:41:30;20.60;99.90
28520;DHT22;15732;48.534;20.382;2023-06-22T03:43:57;20.50;99.90
28520;DHT22;15732;48.534;20.382;2023-06-22T03:46:25;20.60;99.90
28520;DHT22;15732;48.534;20.382;2023-06-22T03:48:52;20.60;99.90
28520;DHT22;15732;48.534;20.382;2023-06-22T03:51:23;20.60;99.90
28520;DHT22;15732;48.534;20.382;2023-06-22T03:53:51;20.60;99.90
28520;DHT22;15732;48.534;20.382;2023-06-22T03:56:18;20.60;99.90
28520;DHT22;15732;48.534;20.382;2023-06-22T03:58:47;20.60;99.90
28520;DHT22;15732;48.534;20.382;2023-06-22T04:01:19;20.60;99.90
28520;DHT22;15732;48.534;20.382;2023-06-22T04:03:46;20.50;99.90
28520;DHT22;15732;48.534;20.382;2023-06-22T04:06:16;20.50;99.90
28520;DHT22;15732;48.534;20.382;2023-06-22T04:08:44;20.50;99.90
28520;DHT22;15732;48.534;20.382;2023-06-22T04:11:14;20.50;99.90
28520;DHT22;15732;48.534;20.382;2023-06-22T04:13:45;20.50;99.90
28520;DHT22;15732;48.534;20.382;2023-06-22T04:16:12;20.50;99.90
28520;DHT22;15732;48.534;20.382;2023-06-22T04:18:39;20.50;99.90
28520;DHT22;15732;48.534;20.382;2023-06-22T04:21:09;20.50;99.90
28520;DHT22;15732;48.534;20.382;2023-06-22T04:23:40;20.60;99.90
28520;DHT22;15732;48.534;20.382;2023-06-22T04:26:07;20.70;99.90
28520;DHT22;15732;48.534;20.382;2023-06-22T04:28:39;20.70;99.90
28520;DHT22;15732;48.534;20.382;2023-06-22T04:31:06;20.80;99.90
28520;DHT22;15732;48.534;20.382;2023-06-22T04:33:34;20.80;99.90
28520;DHT22;15732;48.534;20.382;2023-06-22T04:36:05;20.80;99.90
28520;DHT22;15732;48.534;20.382;2023-06-22T04:38:32;20.80;99.90
28520;DHT22;15732;48.534;20.382;2023-06-22T04:41:04;20.70;99.90
28520;DHT22;15732;48.534;20.382;2023-06-22T04:43:35;20.80;99.90
28520;DHT22;15732;48.534;20.382;2023-06-22T04:46:03;20.70;99.90
28520;DHT22;15732;48.534;20.382;2023-06-22T04:48:30;20.80;99.90
28520;DHT22;15732;48.534;20.382;2023-06-22T04:51:01;20.80;99.90
28520;DHT22;15732;48.534;20.382;2023-06-22T04:53:30;20.80;99.90
28520;DHT22;15732;48.534;20.382;2023-06-22T04:55:57;20.80;99.90
28520;DHT22;15732;48.534;20.382;2023-06-22T04:58:25;20.80;99.90
28520;DHT22;15732;48.534;20.382;2023-06-22T05:01:12;20.70;99.90
28520;DHT22;15732;48.534;20.382;2023-06-22T05:03:39;20.50;99.90
28520;DHT22;15732;48.534;20.382;2023-06-22T05:06:12;20.50;99.90
28520;DHT22;15732;48.534;20.382;2023-06-22T05:08:42;20.50;99.90
28520;DHT22;15732;48.534;20.382;2023-06-22T05:11:10;20.50;99.90
28520;DHT22;15732;48.534;20.382;2023-06-22T05:13:41;20.50;99.90
28520;DHT22;15732;48.534;20.382;2023-06-22T05:16:09;20.70;99.90
28520;DHT22;15732;48.534;20.382;2023-06-22T05:18:36;20.70;99.90
28520;DHT22;15732;48.534;20.382;2023-06-22T05:21:03;20.70;99.90
28520;DHT22;15732;48.534;20.382;2023-06-22T05:23:31;20.80;99.90
28520;DHT22;15732;48.534;20.382;2023-06-22T05:26:02;20.90;99.90
28520;DHT22;15732;48.534;20.382;2023-06-22T05:28:33;20.90;99.90
28520;DHT22;15732;48.534;20.382;2023-06-22T05:31:00;21.00;99.90
28520;DHT22;15732;48.534;20.382;2023-06-22T05:33:28;21.20;99.90
28520;DHT22;15732;48.534;20.382;2023-06-22T05:35:55;21.20;99.90
28520;DHT22;15732;48.534;20.382;2023-06-22T05:38:23;21.20;99.90
28520;DHT22;15732;48.534;20.382;2023-06-22T05:40:55;21.40;99.90
28520;DHT22;15732;48.534;20.382;2023-06-22T05:43:23;21.60;99.90
28520;DHT22;15732;48.534;20.382;2023-06-22T05:45:50;21.70;99.90
28520;DHT22;15732;48.534;20.382;2023-06-22T05:48:17;21.80;99.90
28520;DHT22;15732;48.534;20.382;2023-06-22T05:50:45;22.00;99.90
28520;DHT22;15732;48.534;20.382;2023-06-22T05:53:16;22.20;99.90
28520;DHT22;15732;48.534;20.382;2023-06-22T05:55:43;22.40;99.90
28520;DHT22;15732;48.534;20.382;2023-06-22T05:58:14;22.40;99.90
28520;DHT22;15732;48.534;20.382;2023-06-22T06:00:42;22.50;99.90
28520;DHT22;15732;48.534;20.382;2023-06-22T06:03:13;22.50;99.90
28520;DHT22;15732;48.534;20.382;2023-06-22T06:05:43;22.50;99.90
28520;DHT22;15732;48.534;20.382;2023-06-22T06:08:12;22.50;99.90
28520;DHT22;15732;48.534;20.382;2023-06-22T06:10:39;22.60;99.90
28520;DHT22;15732;48.534;20.382;2023-06-22T06:13:11;22.80;99.90
28520;DHT22;15732;48.534;20.382;2023-06-22T06:15:38;23.00;99.90
28520;DHT22;15732;48.534;20.382;2023-06-22T06:18:06;23.10;99.90
28520;DHT22;15732;48.534;20.382;2023-06-22T06:20:34;23.30;99.90
28520;DHT22;15732;48.534;20.382;2023-06-22T06:23:05;23.50;99.90
28520;DHT22;15732;48.534;20.382;2023-06-22T06:25:33;23.60;99.90
28520;DHT22;15732;48.534;20.382;2023-06-22T06:28:03;23.60;99.90
28520;DHT22;15732;48.534;20.382;2023-06-22T06:30:35;23.70;99.90
28520;DHT22;15732;48.534;20.382;2023-06-22T06:33:04;23.90;99.90
28520;DHT22;15732;48.534;20.382;2023-06-22T06:35:35;24.00;99.90
28520;DHT22;15732;48.534;20.382;2023-06-22T06:38:02;24.10;99.90
28520;DHT22;15732;48.534;20.382;2023-06-22T06:40:29;24.20;99.90
28520;DHT22;15732;48.534;20.382;2023-06-22T06:42:56;24.20;99.90
28520;DHT22;15732;48.534;20.382;2023-06-22T06:45:24;24.40;99.90
28520;DHT22;15732;48.534;20.382;2023-06-22T06:47:57;24.40;99.90
28520;DHT22;15732;48.534;20.382;2023-06-22T06:50:25;24.60;99.90
28520;DHT22;15732;48.534;20.382;2023-06-22T06:52:55;24.70;99.90
28520;DHT22;15732;48.534;20.382;2023-06-22T06:55:25;24.70;99.90
28520;DHT22;15732;48.534;20.382;2023-06-22T06:57:53;24.80;99.90
28520;DHT22;15732;48.534;20.382;2023-06-22T07:00:21;24.90;99.90
28520;DHT22;15732;48.534;20.382;2023-06-22T07:02:48;25.00;99.90
28520;DHT22;15732;48.534;20.382;2023-06-22T07:05:15;25.20;99.90
28520;DHT22;15732;48.534;20.382;2023-06-22T07:07:46;25.30;99.90
28520;DHT22;15732;48.534;20.382;2023-06-22T07:10:18;25.40;99.90
28520;DHT22;15732;48.534;20.382;2023-06-22T07:12:46;25.50;99.90
28520;DHT22;15732;48.534;20.382;2023-06-22T07:15:16;25.60;99.90
28520;DHT22;15732;48.534;20.382;2023-06-22T07:17:48;25.70;99.90
28520;DHT22;15732;48.534;20.382;2023-06-22T07:20:15;25.90;99.90
28520;DHT22;15732;48.534;20.382;2023-06-22T07:22:44;25.90;99.90
28520;DHT22;15732;48.534;20.382;2023-06-22T07:25:11;26.00;99.90
28520;DHT22;15732;48.534;20.382;2023-06-22T07:27:45;26.10;99.90
28520;DHT22;15732;48.534;20.382;2023-06-22T07:30:12;26.20;99.90
28520;DHT22;15732;48.534;20.382;2023-06-22T07:32:40;26.30;99.90
28520;DHT22;15732;48.534;20.382;2023-06-22T07:35:11;26.40;99.90
28520;DHT22;15732;48.534;20.382;2023-06-22T07:37:38;26.40;99.90
28520;DHT22;15732;48.534;20.382;2023-06-22T07:40:08;26.50;99.90
28520;DHT22;15732;48.534;20.382;2023-06-22T07:42:35;26.60;99.90
28520;DHT22;15732;48.534;20.382;2023-06-22T07:45:06;26.70;99.90
28520;DHT22;15732;48.534;20.382;2023-06-22T07:47:35;26.70;99.90
28520;DHT22;15732;48.534;20.382;2023-06-22T07:50:02;26.80;99.90
28520;DHT22;15732;48.534;20.382;2023-06-22T07:52:29;26.90;99.90
28520;DHT22;15732;48.534;20.382;2023-06-22T07:54:57;26.90;99.90
28520;DHT22;15732;48.534;20.382;2023-06-22T07:57:23;26.90;99.90
28520;DHT22;15732;48.534;20.382;2023-06-22T08:00:02;27.00;99.90
28520;DHT22;15732;48.534;20.382;2023-06-22T08:02:31;27.10;99.90
28520;DHT22;15732;48.534;20.382;2023-06-22T08:04:58;27.10;99.90
28520;DHT22;15732;48.534;20.382;2023-06-22T08:07:26;27.20;99.90
28520;DHT22;15732;48.534;20.382;2023-06-22T08:09:53;27.10;99.90
28520;DHT22;15732;48.534;20.382;2023-06-22T08:12:24;27.10;99.90
28520;DHT22;15732;48.534;20.382;2023-06-22T08:14:52;27.00;99.90
28520;DHT22;15732;48.534;20.382;2023-06-22T08:17:19;27.00;99.90
28520;DHT22;15732;48.534;20.382;2023-06-22T08:19:47;27.10;99.90
28520;DHT22;15732;48.534;20.382;2023-06-22T08:22:15;27.10;99.90
28520;DHT22;15732;48.534;20.382;2023-06-22T08:24:42;27.20;99.90
28520;DHT22;15732;48.534;20.382;2023-06-22T08:27:13;27.20;99.90
28520;DHT22;15732;48.534;20.382;2023-06-22T08:29:42;27.30;99.90
28520;DHT22;15732;48.534;20.382;2023-06-22T08:32:14;27.30;99.90
28520;DHT22;15732;48.534;20.382;2023-06-22T08:34:42;27.30;99.90
28520;DHT22;15732;48.534;20.382;2023-06-22T08:37:09;27.30;99.90
28520;DHT22;15732;48.534;20.382;2023-06-22T08:39:36;27.40;99.90
28520;DHT22;15732;48.534;20.382;2023-06-22T08:42:04;27.40;99.90
28520;DHT22;15732;48.534;20.382;2023-06-22T08:44:32;27.40;99.90
28520;DHT22;15732;48.534;20.382;2023-06-22T08:47:00;27.20;99.90
28520;DHT22;15732;48.534;20.382;2023-06-22T08:49:27;27.20;99.90
28520;DHT22;15732;48.534;20.382;2023-06-22T08:51:55;27.20;99.90
28520;DHT22;15732;48.534;20.382;2023-06-22T08:54:23;27.30;99.90
28520;DHT22;15732;48.534;20.382;2023-06-22T08:56:50;27.30;99.90
28520;DHT22;15732;48.534;20.382;2023-06-22T08:59:18;27.40;99.90
28520;DHT22;15732;48.534;20.382;2023-06-22T09:01:45;27.40;99.90
28520;DHT22;15732;48.534;20.382;2023-06-22T09:04:15;27.50;99.90
28520;DHT22;15732;48.534;20.382;2023-06-22T09:06:46;27.60;99.90
28520;DHT22;15732;48.534;20.382;2023-06-22T09:09:15;27.60;99.90
28520;DHT22;15732;48.534;20.382;2023-06-22T09:11:47;27.70;99.90
28520;DHT22;15732;48.534;20.382;2023-06-22T09:14:14;27.70;99.90
28520;DHT22;15732;48.534;20.382;2023-06-22T09:16:42;27.70;99.90
28520;DHT22;15732;48.534;20.382;2023-06-22T09:19:13;27.80;99.90
28520;DHT22;15732;48.534;20.382;2023-06-22T09:21:44;27.80;99.90
28520;DHT22;15732;48.534;20.382;2023-06-22T09:24:15;27.90;99.90
28520;DHT22;15732;48.534;20.382;2023-06-22T09:26:42;27.90;99.90
28520;DHT22;15732;48.534;20.382;2023-06-22T09:29:13;27.90;99.90
28520;DHT22;15732;48.534;20.382;2023-06-22T09:31:41;28.00;99.90
28520;DHT22;15732;48.534;20.382;2023-06-22T09:34:08;28.00;99.90
28520;DHT22;15732;48.534;20.382;2023-06-22T09:36:36;28.10;99.90
28520;DHT22;15732;48.534;20.382;2023-06-22T09:39:09;28.10;99.90
28520;DHT22;15732;48.534;20.382;2023-06-22T09:41:36;28.10;99.90
28520;DHT22;15732;48.534;20.382;2023-06-22T09:44:07;28.20;99.90
28520;DHT22;15732;48.534;20.382;2023-06-22T09:46:35;28.30;99.90
28520;DHT22;15732;48.534;20.382;2023-06-22T09:49:02;28.30;99.90
28520;DHT22;15732;48.534;20.382;2023-06-22T09:51:30;28.40;99.90
28520;DHT22;15732;48.534;20.382;2023-06-22T09:53:56;28.50;99.90
28520;DHT22;15732;48.534;20.382;2023-06-22T09:56:28;28.50;99.90
28520;DHT22;15732;48.534;20.382;2023-06-22T09:58:57;28.50;99.90
28520;DHT22;15732;48.534;20.382;2023-06-22T10:01:24;28.40;99.90
28520;DHT22;15732;48.534;20.382;2023-06-22T10:03:55;28.40;99.90
28520;DHT22;15732;48.534;20.382;2023-06-22T10:06:22;28.40;99.90
28520;DHT22;15732;48.534;20.382;2023-06-22T10:08:51;28.50;99.90
28520;DHT22;15732;48.534;20.382;2023-06-22T10:11:19;28.50;99.90
28520;DHT22;15732;48.534;20.382;2023-06-22T10:13:56;28.50;99.90
28520;DHT22;15732;48.534;20.382;2023-06-22T10:16:29;28.60;99.90
28520;DHT22;15732;48.534;20.382;2023-06-22T10:18:57;28.60;99.90
28520;DHT22;15732;48.534;20.382;2023-06-22T10:21:28;28.60;99.90
28520;DHT22;15732;48.534;20.382;2023-06-22T10:24:01;28.70;99.90
28520;DHT22;15732;48.534;20.382;2023-06-22T10:26:35;28.70;99.90
28520;DHT22;15732;48.534;20.382;2023-06-22T10:29:06;28.70;99.90
28520;DHT22;15732;48.534;20.382;2023-06-22T10:31:38;28.80;99.90
28520;DHT22;15732;48.534;20.382;2023-06-22T10:34:09;28.90;99.90
28520;DHT22;15732;48.534;20.382;2023-06-22T10:36:36;28.90;99.90
28520;DHT22;15732;48.534;20.382;2023-06-22T10:39:03;28.90;99.90
28520;DHT22;15732;48.534;20.382;2023-06-22T10:41:31;28.90;99.90
28520;DHT22;15732;48.534;20.382;2023-06-22T10:43:58;28.90;99.90
28520;DHT22;15732;48.534;20.382;2023-06-22T10:46:25;28.90;99.90
28520;DHT22;15732;48.534;20.382;2023-06-22T10:48:52;28.90;99.90
28520;DHT22;15732;48.534;20.382;2023-06-22T10:51:21;28.90;99.90
28520;DHT22;15732;48.534;20.382;2023-06-22T10:53:49;28.80;99.90
28520;DHT22;15732;48.534;20.382;2023-06-22T10:56:18;28.90;99.90
28520;DHT22;15732;48.534;20.382;2023-06-22T10:58:46;28.80;99.90
28520;DHT22;15732;48.534;20.382;2023-06-22T11:01:13;28.80;99.90
28520;DHT22;15732;48.534;20.382;2023-06-22T11:03:40;28.80;99.90
28520;DHT22;15732;48.534;20.382;2023-06-22T11:06:08;28.80;99.90
28520;DHT22;15732;48.534;20.382;2023-06-22T11:08:35;28.70;99.90
28520;DHT22;15732;48.534;20.382;2023-06-22T11:11:06;28.70;99.90
28520;DHT22;15732;48.534;20.382;2023-06-22T11:13:34;28.60;99.90
28520;DHT22;15732;48.534;20.382;2023-06-22T11:16:05;28.60;99.90
28520;DHT22;15732;48.534;20.382;2023-06-22T11:18:32;28.60;99.90
28520;DHT22;15732;48.534;20.382;2023-06-22T11:21:03;28.60;99.90
28520;DHT22;15732;48.534;20.382;2023-06-22T11:23:31;28.60;99.90
28520;DHT22;15732;48.534;20.382;2023-06-22T11:25:58;28.60;99.90
28520;DHT22;15732;48.534;20.382;2023-06-22T11:28:27;28.60;99.90
28520;DHT22;15732;48.534;20.382;2023-06-22T11:30:57;28.60;99.90
28520;DHT22;15732;48.534;20.382;2023-06-22T11:33:25;28.50;99.90
28520;DHT22;15732;48.534;20.382;2023-06-22T11:35:53;28.50;99.90
28520;DHT22;15732;48.534;20.382;2023-06-22T11:38:20;28.50;99.90
28520;DHT22;15732;48.534;20.382;2023-06-22T11:40:47;28.50;99.90
28520;DHT22;15732;48.534;20.382;2023-06-22T11:43:15;28.50;99.90
28520;DHT22;15732;48.534;20.382;2023-06-22T11:45:42;28.50;99.90
28520;DHT22;15732;48.534;20.382;2023-06-22T11:48:10;28.50;99.90
28520;DHT22;15732;48.534;20.382;2023-06-22T11:50:37;28.50;99.90
28520;DHT22;15732;48.534;20.382;2023-06-22T11:53:05;28.50;99.90
28520;DHT22;15732;48.534;20.382;2023-06-22T11:55:32;28.50;99.90
28520;DHT22;15732;48.534;20.382;2023-06-22T11:57:59;28.50;99.90
28520;DHT22;15732;48.534;20.382;2023-06-22T12:00:30;28.60;99.90
28520;DHT22;15732;48.534;20.382;2023-06-22T12:03:01;28.60;99.90
28520;DHT22;15732;48.534;20.382;2023-06-22T12:05:29;28.60;99.90
28520;DHT22;15732;48.534;20.382;2023-06-22T12:08:00;28.60;99.90
28520;DHT22;15732;48.534;20.382;2023-06-22T12:10:30;28.60;99.90
28520;DHT22;15732;48.534;20.382;2023-06-22T12:12:57;28.60;99.90
28520;DHT22;15732;48.534;20.382;2023-06-22T12:15:26;28.60;99.90
28520;DHT22;15732;48.534;20.382;2023-06-22T12:17:53;28.70;99.90
28520;DHT22;15732;48.534;20.382;2023-06-22T12:20:20;28.70;99.90
28520;DHT22;15732;48.534;20.382;2023-06-22T12:22:52;28.70;99.90
28520;DHT22;15732;48.534;20.382;2023-06-22T12:25:21;28.70;99.90
28520;DHT22;15732;48.534;20.382;2023-06-22T12:27:48;28.70;99.90
28520;DHT22;15732;48.534;20.382;2023-06-22T12:30:16;28.70;99.90
28520;DHT22;15732;48.534;20.382;2023-06-22T12:32:47;28.80;99.90
28520;DHT22;15732;48.534;20.382;2023-06-22T12:35:16;28.90;99.90
28520;DHT22;15732;48.534;20.382;2023-06-22T12:37:43;28.90;99.90
28520;DHT22;15732;48.534;20.382;2023-06-22T12:40:14;28.90;99.90
28520;DHT22;15732;48.534;20.382;2023-06-22T12:42:41;29.00;99.90
28520;DHT22;15732;48.534;20.382;2023-06-22T12:45:10;29.00;99.90
28520;DHT22;15732;48.534;20.382;2023-06-22T12:47:37;29.00;99.90
28520;DHT22;15732;48.534;20.382;2023-06-22T12:50:09;29.00;99.90
28520;DHT22;15732;48.534;20.382;2023-06-22T12:52:41;29.00;99.90
28520;DHT22;15732;48.534;20.382;2023-06-22T12:55:08;29.00;99.90
28520;DHT22;15732;48.534;20.382;2023-06-22T12:57:39;29.00;99.90
28520;DHT22;15732;48.534;20.382;2023-06-22T13:00:08;29.00;99.90
28520;DHT22;15732;48.534;20.382;2023-06-22T13:02:37;29.10;99.90
28520;DHT22;15732;48.534;20.382;2023-06-22T13:05:05;29.10;99.90
28520;DHT22;15732;48.534;20.382;2023-06-22T13:07:33;29.10;99.90
28520;DHT22;15732;48.534;20.382;2023-06-22T13:10:00;29.10;99.90
28520;DHT22;15732;48.534;20.382;2023-06-22T13:12:31;29.10;99.90
28520;DHT22;15732;48.534;20.382;2023-06-22T13:14:58;29.10;99.90
28520;DHT22;15732;48.534;20.382;2023-06-22T13:17:29;29.10;99.90
28520;DHT22;15732;48.534;20.382;2023-06-22T13:20:01;29.10;99.90
28520;DHT22;15732;48.534;20.382;2023-06-22T13:22:34;29.00;99.90
28520;DHT22;15732;48.534;20.382;2023-06-22T13:25:23;29.00;99.90
28520;DHT22;15732;48.534;20.382;2023-06-22T13:27:53;29.00;99.90
28520;DHT22;15732;48.534;20.382;2023-06-22T13:30:20;29.00;99.90
28520;DHT22;15732;48.534;20.382;2023-06-22T13:32:48;29.00;99.90
28520;DHT22;15732;48.534;20.382;2023-06-22T13:35:15;29.00;99.90
28520;DHT22;15732;48.534;20.382;2023-06-22T13:37:46;29.00;99.90
28520;DHT22;15732;48.534;20.382;2023-06-22T13:40:18;29.00;99.90
28520;DHT22;15732;48.534;20.382;2023-06-22T13:42:45;29.00;99.90
28520;DHT22;15732;48.534;20.382;2023-06-22T13:45:12;29.00;99.90
28520;DHT22;15732;48.534;20.382;2023-06-22T13:47:40;29.00;99.90
28520;DHT22;15732;48.534;20.382;2023-06-22T13:50:08;29.00;99.90
28520;DHT22;15732;48.534;20.382;2023-06-22T13:52:35;29.00;99.90
28520;DHT22;15732;48.534;20.382;2023-06-22T13:55:02;28.90;99.90
28520;DHT22;15732;48.534;20.382;2023-06-22T13:57:31;28.90;99.90
28520;DHT22;15732;48.534;20.382;2023-06-22T13:59:59;28.90;99.90
28520;DHT22;15732;48.534;20.382;2023-06-22T14:02:30;28.90;99.90
28520;DHT22;15732;48.534;20.382;2023-06-22T14:04:57;28.90;99.90
28520;DHT22;15732;48.534;20.382;2023-06-22T14:07:24;28.90;99.90
28520;DHT22;15732;48.534;20.382;2023-06-22T14:09:52;28.90;99.90
28520;DHT22;15732;48.534;20.382;2023-06-22T14:12:19;28.90;99.90
28520;DHT22;15732;48.534;20.382;2023-06-22T14:14:46;28.90;99.90
28520;DHT22;15732;48.534;20.382;2023-06-22T14:17:13;29.00;99.90
28520;DHT22;15732;48.534;20.382;2023-06-22T14:19:40;29.00;99.90
28520;DHT22;15732;48.534;20.382;2023-06-22T14:22:07;29.00;99.90
28520;DHT22;15732;48.534;20.382;2023-06-22T14:24:35;29.00;99.90
28520;DHT22;15732;48.534;20.382;2023-06-22T14:27:02;29.00;99.90
28520;DHT22;15732;48.534;20.382;2023-06-22T14:29:34;29.00;99.90
28520;DHT22;15732;48.534;20.382;2023-06-22T14:32:07;29.00;99.90
28520;DHT22;15732;48.534;20.382;2023-06-22T14:34:36;29.00;99.90
28520;DHT22;15732;48.534;20.382;2023-06-22T14:37:10;29.00;99.90
28520;DHT22;15732;48.534;20.382;2023-06-22T14:39:39;29.00;99.90
28520;DHT22;15732;48.534;20.382;2023-06-22T14:42:08;29.00;99.90
28520;DHT22;15732;48.534;20.382;2023-06-22T14:44:34;29.00;99.90
28520;DHT22;15732;48.534;20.382;2023-06-22T14:47:07;29.00;99.90
28520;DHT22;15732;48.534;20.382;2023-06-22T14:49:35;29.00;99.90
28520;DHT22;15732;48.534;20.382;2023-06-22T14:52:06;29.00;99.90
28520;DHT22;15732;48.534;20.382;2023-06-22T14:54:34;29.00;99.90
28520;DHT22;15732;48.534;20.382;2023-06-22T14:57:01;29.00;99.90
28520;DHT22;15732;48.534;20.382;2023-06-22T14:59:28;29.00;99.90
28520;DHT22;15732;48.534;20.382;2023-06-22T15:01:59;29.00;99.90
28520;DHT22;15732;48.534;20.382;2023-06-22T15:04:30;29.00;99.90
28520;DHT22;15732;48.534;20.382;2023-06-22T15:07:01;29.00;99.90
28520;DHT22;15732;48.534;20.382;2023-06-22T15:09:28;29.00;99.90
28520;DHT22;15732;48.534;20.382;2023-06-22T15:11:56;29.00;99.90
28520;DHT22;15732;48.534;20.382;2023-06-22T15:14:24;29.00;99.90
28520;DHT22;15732;48.534;20.382;2023-06-22T15:16:55;29.00;99.90
28520;DHT22;15732;48.534;20.382;2023-06-22T15:19:22;29.00;99.90
28520;DHT22;15732;48.534;20.382;2023-06-22T15:21:50;29.00;99.90
28520;DHT22;15732;48.534;20.382;2023-06-22T15:24:17;29.00;99.90
28520;DHT22;15732;48.534;20.382;2023-06-22T15:26:45;29.00;99.90
28520;DHT22;15732;48.534;20.382;2023-06-22T15:29:12;29.00;99.90
28520;DHT22;15732;48.534;20.382;2023-06-22T15:31:39;29.00;99.90
28520;DHT22;15732;48.534;20.382;2023-06-22T15:34:06;29.00;99.90